Terminal Aerodrome Forecast
Issued by NWS Blacksburg, VA

Home | Current Version | Previous Version | Text Only | Print | Product List | Glossary On
Versions: 1 2 3 4 5 6 7 8 9 10 11 12 13 14 15 16 17 18 19 20 21 22 23 24 25 26
000
FTUS41 KRNK 250028 AAA
TAFROA
TAF AMD
KROA 250028Z 2500/2524 01005KT 6SM -SHRA OVC035
      TEMPO 2500/2502 3SM SHRA OVC012
     FM250700 VRB03KT P6SM OVC030
     FM251400 26006KT P6SM BKN060
     FM252000 25011KT P6SM VCSH BKN060=

USA.gov is the U.S. government's official web portal to all federal, state and local government web resources and services.